createdAt,value
2018-08-07T00:00:20.037Z,98507.15
2018-08-07T00:02:50.522Z,98509.14
2018-08-07T00:05:19.904Z,98505.41
2018-08-07T00:07:50.964Z,98499.50
2018-08-07T00:10:21.581Z,98497.42
2018-08-07T00:12:50.892Z,98489.51
2018-08-07T00:15:20.941Z,98496.70
2018-08-07T00:17:50.141Z,98494.07
2018-08-07T00:20:19.401Z,98495.22
2018-08-07T00:22:48.660Z,98491.86
2018-08-07T00:25:17.968Z,98486.27
2018-08-07T00:27:47.261Z,98487.62
2018-08-07T00:30:17.341Z,98486.05
2018-08-07T00:32:46.806Z,98490.03
2018-08-07T00:35:18.962Z,98491.86
2018-08-07T00:37:49.164Z,98484.75
2018-08-07T00:40:19.251Z,98481.83
2018-08-07T00:42:48.958Z,98482.67
2018-08-07T00:45:20.096Z,98483.73
2018-08-07T00:47:50.141Z,98487.62
2018-08-07T00:50:20.943Z,98483.24
2018-08-07T00:52:51.216Z,98470.95
2018-08-07T00:55:21.188Z,98478.10
2018-08-07T00:57:51.000Z,98471.95
2018-08-07T01:00:20.624Z,98472.83
2018-08-07T01:02:50.296Z,98473.64
2018-08-07T01:05:19.575Z,98472.61
2018-08-07T01:07:48.843Z,98469.72
2018-08-07T01:10:18.817Z,98465.73
2018-08-07T01:12:48.302Z,98468.75
2018-08-07T01:15:20.572Z,98469.00
2018-08-07T01:17:49.886Z,98472.98
2018-08-07T01:20:23.088Z,98474.81
2018-08-07T01:22:52.598Z,98480.49
2018-08-07T01:25:24.297Z,98474.34
2018-08-07T01:27:53.562Z,98475.05
2018-08-07T01:30:26.085Z,98468.50
2018-08-07T01:32:56.001Z,98471.58
2018-08-07T01:35:26.320Z,98474.69
2018-08-07T01:37:55.625Z,98466.79
2018-08-07T01:40:24.865Z,98471.18
2018-08-07T01:42:54.192Z,98480.59
2018-08-07T01:45:23.823Z,98481.22
2018-08-07T01:47:54.565Z,98472.61
2018-08-07T01:50:23.778Z,98475.61
2018-08-07T01:52:53.124Z,98467.02
2018-08-07T01:55:25.565Z,98467.96
2018-08-07T01:57:54.869Z,98463.17
2018-08-07T02:00:24.189Z,98458.92
2018-08-07T02:02:53.456Z,98466.39
2018-08-07T02:05:23.755Z,98466.14
2018-08-07T02:07:53.337Z,98470.45
2018-08-07T02:10:22.576Z,98465.77
2018-08-07T02:12:51.834Z,98469.83
2018-08-07T02:15:21.048Z,98476.27
2018-08-07T02:17:50.287Z,98474.15
2018-08-07T02:20:19.566Z,98473.89
2018-08-07T02:22:48.778Z,98477.63
2018-08-07T02:25:19.244Z,98474.15
2018-08-07T02:27:48.876Z,98487.69
2018-08-07T02:30:18.662Z,98488.17
2018-08-07T02:32:47.945Z,98489.75
2018-08-07T02:35:17.828Z,98497.03
2018-08-07T02:37:47.939Z,98499.73
2018-08-07T02:40:17.724Z,98496.44
2018-08-07T02:42:47.121Z,98492.53
2018-08-07T02:45:19.578Z,98502.33
2018-08-07T02:47:49.222Z,98502.47
2018-08-07T02:50:20.297Z,98504.12
2018-08-07T02:52:49.615Z,98507.63
2018-08-07T02:55:19.253Z,98501.12
2018-08-07T02:57:48.697Z,98502.35
2018-08-07T03:00:20.139Z,98504.88
2018-08-07T03:02:49.542Z,98505.75
2018-08-07T03:05:19.883Z,98497.14
2018-08-07T03:07:49.371Z,98504.27
2018-08-07T03:10:18.565Z,98503.79
2018-08-07T03:12:48.072Z,98505.38
2018-08-07T03:15:18.696Z,98513.45
2018-08-07T03:17:48.521Z,98516.52
2018-08-07T03:20:18.994Z,98505.34
2018-08-07T03:22:48.249Z,98505.96
2018-08-07T03:25:18.070Z,98498.92
2018-08-07T03:27:47.521Z,98502.55
2018-08-07T03:30:20.924Z,98499.46
2018-08-07T03:32:50.175Z,98500.27
2018-08-07T03:35:19.489Z,98502.97
2018-08-07T03:37:50.959Z,98507.65
2018-08-07T03:40:20.902Z,98512.14
2018-08-07T03:42:50.170Z,98512.72
2018-08-07T03:45:20.130Z,98513.75
2018-08-07T03:47:49.669Z,98508.14
2018-08-07T03:50:18.869Z,98514.14
2018-08-07T03:52:48.127Z,98512.72
2018-08-07T03:55:18.689Z,98519.09
2018-08-07T03:57:48.472Z,98520.31
2018-08-07T04:00:20.769Z,98521.56
2018-08-07T04:02:50.440Z,98525.71
2018-08-07T04:05:19.698Z,98526.96
2018-08-07T04:07:48.931Z,98523.45
2018-08-07T04:10:19.195Z,98522.38
2018-08-07T04:12:48.434Z,98534.57
2018-08-07T04:15:18.703Z,98539.98
2018-08-07T04:17:47.946Z,98543.57
2018-08-07T04:20:18.417Z,98536.39
2018-08-07T04:22:47.626Z,98545.00
2018-08-07T04:25:16.996Z,98546.55
2018-08-07T04:27:46.697Z,98538.91
2018-08-07T04:30:17.401Z,98541.22
2018-08-07T04:32:46.994Z,98540.13
2018-08-07T04:35:17.106Z,98539.77
2018-08-07T04:37:46.715Z,98535.31
2018-08-07T04:40:16.049Z,98536.08
2018-08-07T04:42:45.293Z,98534.84
2018-08-07T04:45:16.824Z,98547.30
2018-08-07T04:47:46.895Z,98548.22
2018-08-07T04:50:16.103Z,98557.19
2018-08-07T04:52:45.469Z,98557.30
2018-08-07T04:55:14.842Z,98560.94
2018-08-07T04:57:44.232Z,98566.47
2018-08-07T05:00:18.589Z,98567.77
2018-08-07T05:02:48.878Z,98566.95
2018-08-07T05:05:18.178Z,98572.19
2018-08-07T05:07:47.364Z,98578.58
2018-08-07T05:10:18.294Z,98577.73
2018-08-07T05:12:48.272Z,98583.87
2018-08-07T05:15:17.674Z,98581.60
2018-08-07T05:17:47.996Z,98583.64
2018-08-07T05:20:17.372Z,98587.02
2018-08-07T05:22:47.582Z,98599.83
2018-08-07T05:25:17.086Z,98605.70
2018-08-07T05:27:46.287Z,98601.38
2018-08-07T05:30:17.459Z,98600.92
2018-08-07T05:32:46.830Z,98588.95
2018-08-07T05:35:16.664Z,98600.03
2018-08-07T05:37:45.900Z,98603.92
2018-08-07T05:40:15.139Z,98600.88
2018-08-07T05:42:44.418Z,98602.55
2018-08-07T05:45:16.241Z,98601.00
2018-08-07T05:47:45.639Z,98602.06
2018-08-07T05:50:16.426Z,98596.67
2018-08-07T05:52:45.490Z,98603.42
2018-08-07T05:55:15.340Z,98599.49
2018-08-07T05:57:44.573Z,98602.08
2018-08-07T06:00:16.767Z,98604.01
2018-08-07T06:02:46.960Z,98599.21
2018-08-07T06:05:16.314Z,98597.84
2018-08-07T06:07:45.915Z,98604.38
2018-08-07T06:10:15.177Z,98599.55
2018-08-07T06:12:44.472Z,98599.61
2018-08-07T06:15:15.647Z,98599.72
2018-08-07T06:17:45.748Z,98603.24
2018-08-07T06:20:15.018Z,98598.18
2018-08-07T06:22:44.360Z,98592.17
2018-08-07T06:25:13.637Z,98592.03
2018-08-07T06:27:42.831Z,98598.28
2018-08-07T06:30:14.370Z,98595.70
2018-08-07T06:32:43.911Z,98590.09
2018-08-07T06:35:13.152Z,98590.22
2018-08-07T06:37:42.528Z,98590.47
2018-08-07T06:40:12.825Z,98597.52
2018-08-07T06:42:42.031Z,98582.82
2018-08-07T06:45:13.754Z,98580.93
2018-08-07T06:47:42.934Z,98579.08
2018-08-07T06:50:15.716Z,98587.08
2018-08-07T06:52:46.156Z,98590.47
2018-08-07T06:55:15.416Z,98586.13
2018-08-07T06:57:44.733Z,98585.34
2018-08-07T07:00:16.048Z,98585.49
2018-08-07T07:02:45.345Z,98584.36
2018-08-07T07:05:14.550Z,98579.91
2018-08-07T07:07:43.890Z,98587.58
2018-08-07T07:10:14.090Z,98585.73
2018-08-07T07:12:44.800Z,98580.96
2018-08-07T07:15:15.056Z,98578.67
2018-08-07T07:17:46.977Z,98580.52
2018-08-07T07:20:17.459Z,98580.52
2018-08-07T07:22:47.575Z,98574.82
2018-08-07T07:25:16.921Z,98570.92
2018-08-07T07:27:46.149Z,98566.46
2018-08-07T07:30:18.841Z,98567.70
2018-08-07T07:32:49.592Z,98570.20
2018-08-07T07:35:19.141Z,98570.44
2018-08-07T07:37:48.697Z,98569.85
2018-08-07T07:40:17.937Z,98564.03
2018-08-07T07:42:47.192Z,98567.82
2018-08-07T07:45:17.869Z,98563.25
2018-08-07T07:47:47.123Z,98565.12
2018-08-07T07:50:18.539Z,98552.27
2018-08-07T07:52:48.830Z,98554.69
2018-08-07T07:55:18.814Z,98549.89
2018-08-07T07:57:48.033Z,98549.50
2018-08-07T08:00:23.198Z,98554.16
2018-08-07T08:02:52.841Z,98554.36
2018-08-07T08:05:26.244Z,98551.92
2018-08-07T08:07:55.756Z,98540.50
2018-08-07T08:10:24.891Z,98547.34
2018-08-07T08:12:54.072Z,98550.19
2018-08-07T08:15:23.325Z,98546.91
2018-08-07T08:17:52.533Z,98552.54
2018-08-07T08:20:24.145Z,98545.23
2018-08-07T08:22:55.048Z,98541.32
2018-08-07T08:25:24.236Z,98544.86
2018-08-07T08:27:53.472Z,98550.52
2018-08-07T08:30:22.711Z,98542.48
2018-08-07T08:32:51.936Z,98546.22
2018-08-07T08:35:21.191Z,98547.91
2018-08-07T08:37:50.726Z,98543.37
2018-08-07T08:40:22.012Z,98548.36
2018-08-07T08:42:51.243Z,98547.56
2018-08-07T08:45:22.544Z,98538.56
2018-08-07T08:47:54.651Z,98544.80
2018-08-07T08:50:23.939Z,98543.42
2018-08-07T08:52:53.195Z,98542.63
2018-08-07T08:55:22.464Z,98538.66
2018-08-07T08:57:51.616Z,98537.86
2018-08-07T09:00:28.018Z,98534.09
2018-08-07T09:02:58.480Z,98538.00
2018-08-07T09:05:27.741Z,98532.23
2018-08-07T09:07:57.011Z,98533.38
2018-08-07T09:10:28.083Z,98525.62
2018-08-07T09:12:57.843Z,98525.47
2018-08-07T09:15:27.102Z,98519.56
2018-08-07T09:17:56.506Z,98516.02
2018-08-07T09:20:28.824Z,98515.55
2018-08-07T09:22:59.180Z,98516.16
2018-08-07T09:25:29.585Z,98505.69
2018-08-07T09:27:58.818Z,98508.52
2018-08-07T09:30:29.281Z,98500.30
2018-08-07T09:32:59.360Z,98512.89
2018-08-07T09:35:28.519Z,98501.38
2018-08-07T09:37:58.514Z,98505.99
2018-08-07T09:40:27.853Z,98505.92
2018-08-07T09:42:57.583Z,98504.09
2018-08-07T09:45:30.826Z,98504.67
2018-08-07T09:48:01.003Z,98505.56
2018-08-07T09:50:32.110Z,98497.97
2018-08-07T09:53:01.288Z,98502.88
2018-08-07T09:55:30.516Z,98501.33
2018-08-07T09:57:59.793Z,98492.19
2018-08-07T10:00:34.797Z,98487.70
2018-08-07T10:03:05.930Z,98489.53
2018-08-07T10:05:35.246Z,98483.04
2018-08-07T10:08:04.425Z,98475.11
2018-08-07T10:10:33.734Z,98473.48
2018-08-07T10:13:03.244Z,98470.13
2018-08-07T10:15:32.466Z,98464.44
2018-08-07T10:18:01.951Z,98454.08
2018-08-07T10:20:31.371Z,98459.34
2018-08-07T10:23:00.602Z,98452.28
2018-08-07T10:25:29.820Z,98450.18
2018-08-07T10:27:59.016Z,98443.84
2018-08-07T10:30:28.308Z,98434.30
2018-08-07T10:32:58.022Z,98439.80
2018-08-07T10:35:27.544Z,98433.19
2018-08-07T10:37:56.744Z,98430.57
2018-08-07T10:40:27.441Z,98429.66
2018-08-07T10:42:56.664Z,98434.91
2018-08-07T10:45:27.006Z,98430.99
2018-08-07T10:47:56.312Z,98423.72
2018-08-07T10:50:27.585Z,98426.67
2018-08-07T10:52:57.409Z,98419.96
2018-08-07T10:55:27.337Z,98426.28
2018-08-07T10:57:58.036Z,98430.39
2018-08-07T11:00:29.665Z,98430.61
2018-08-07T11:02:59.376Z,98433.77
2018-08-07T11:05:29.200Z,98430.58
2018-08-07T11:07:58.410Z,98437.45
2018-08-07T11:10:28.223Z,98429.88
2018-08-07T11:12:57.667Z,98417.69
2018-08-07T11:15:30.120Z,98411.20
2018-08-07T11:18:00.343Z,98399.45
2018-08-07T11:20:29.596Z,98391.58
2018-08-07T11:23:00.203Z,98389.60
2018-08-07T11:25:30.213Z,98390.78
2018-08-07T11:27:59.774Z,98385.28
2018-08-07T11:30:29.929Z,98383.30
2018-08-07T11:33:00.428Z,98385.50
2018-08-07T11:35:29.756Z,98389.03
2018-08-07T11:38:00.445Z,98399.05
2018-08-07T11:40:29.864Z,98405.16
2018-08-07T11:42:59.496Z,98395.52
2018-08-07T11:45:30.113Z,98397.48
2018-08-07T11:47:59.382Z,98396.91
2018-08-07T11:50:29.932Z,98401.03
2018-08-07T11:52:59.168Z,98399.36
2018-08-07T11:55:28.388Z,98395.75
2018-08-07T11:57:57.663Z,98396.68
2018-08-07T12:00:30.879Z,98393.30
2018-08-07T12:03:00.276Z,98397.90
2018-08-07T12:05:30.168Z,98411.67
2018-08-07T12:07:59.429Z,98403.59
2018-08-07T12:10:28.677Z,98403.99
2018-08-07T12:12:57.873Z,98407.15
2018-08-07T12:15:27.386Z,98403.83
2018-08-07T12:17:56.748Z,98402.88
2018-08-07T12:20:25.917Z,98403.20
2018-08-07T12:22:55.247Z,98414.90
2018-08-07T12:25:24.533Z,98409.84
2018-08-07T12:27:53.878Z,98408.84
2018-08-07T12:30:27.365Z,98396.27
2018-08-07T12:32:56.917Z,98400.36
2018-08-07T12:35:27.384Z,98390.30
2018-08-07T12:37:56.827Z,98378.06
2018-08-07T12:40:28.040Z,98377.58
2018-08-07T12:42:59.695Z,98366.59
2018-08-07T12:45:29.009Z,98365.28
2018-08-07T12:47:58.345Z,98361.58
2018-08-07T12:50:27.732Z,98357.70
2018-08-07T12:52:57.051Z,98352.03
2018-08-07T12:55:26.309Z,98346.52
2018-08-07T12:57:55.620Z,98344.42
2018-08-07T13:00:26.345Z,98338.19
2018-08-07T13:02:56.144Z,98336.25
2018-08-07T13:05:25.398Z,98337.28
2018-08-07T13:07:54.806Z,98335.91
2018-08-07T13:10:25.096Z,98340.22
2018-08-07T13:12:55.188Z,98342.59
2018-08-07T13:15:24.488Z,98346.92
2018-08-07T13:17:53.777Z,98351.23
2018-08-07T13:20:23.063Z,98344.58
2018-08-07T13:22:52.313Z,98355.99
2018-08-07T13:25:22.929Z,98353.25
2018-08-07T13:27:52.228Z,98349.89
2018-08-07T13:30:27.088Z,98353.28
2018-08-07T13:32:57.300Z,98356.44
2018-08-07T13:35:26.558Z,98357.27
2018-08-07T13:37:56.110Z,98353.91
2018-08-07T13:40:25.773Z,98346.24
2018-08-07T13:42:54.961Z,98349.80
2018-08-07T13:45:25.435Z,98358.64
2018-08-07T13:47:54.693Z,98350.38
2018-08-07T13:50:24.984Z,98361.02
2018-08-07T13:52:54.459Z,98352.89
2018-08-07T13:55:24.864Z,98360.34
2018-08-07T13:57:54.179Z,98356.77
2018-08-07T14:00:27.369Z,98356.28
2018-08-07T14:02:57.461Z,98353.06
2018-08-07T14:05:27.453Z,98353.39
2018-08-07T14:07:57.769Z,98352.77
2018-08-07T14:10:28.672Z,98353.13
2018-08-07T14:12:57.949Z,98348.25
2018-08-07T14:15:28.656Z,98347.96
2018-08-07T14:17:57.888Z,98344.83
2018-08-07T14:20:27.164Z,98341.92
2018-08-07T14:22:56.449Z,98342.05
2018-08-07T14:25:27.524Z,98336.73
2018-08-07T14:27:56.820Z,98339.34
2018-08-07T14:30:28.343Z,98339.94
2018-08-07T14:32:58.242Z,98335.99
2018-08-07T14:35:27.532Z,98322.39
2018-08-07T14:37:56.808Z,98319.84
2018-08-07T14:40:27.349Z,98319.61
2018-08-07T14:42:57.261Z,98319.43
2018-08-07T14:45:27.887Z,98312.76
2018-08-07T14:47:58.089Z,98308.61
2018-08-07T14:50:28.936Z,98311.92
2018-08-07T14:52:58.197Z,98305.22
2018-08-07T14:55:27.469Z,98301.84
2018-08-07T14:57:56.663Z,98295.33
2018-08-07T15:00:28.304Z,98296.91
2018-08-07T15:02:57.456Z,98288.66
2018-08-07T15:05:26.649Z,98276.42
2018-08-07T15:07:55.941Z,98265.75
2018-08-07T15:10:26.417Z,98265.80
2018-08-07T15:12:55.602Z,98267.19
2018-08-07T15:15:28.783Z,98257.52
2018-08-07T15:17:58.008Z,98258.86
2018-08-07T15:20:28.818Z,98258.32
2018-08-07T15:22:58.453Z,98261.67
2018-08-07T15:25:27.697Z,98260.48
2018-08-07T15:27:56.939Z,98268.00
2018-08-07T15:30:27.288Z,98264.27
2018-08-07T15:32:56.898Z,98259.52
2018-08-07T15:35:27.507Z,98256.17
2018-08-07T15:37:56.881Z,98263.45
2018-08-07T15:40:26.102Z,98260.52
2018-08-07T15:42:55.364Z,98264.66
2018-08-07T15:45:25.565Z,98268.98
2018-08-07T15:47:54.885Z,98259.92
2018-08-07T15:50:24.253Z,98265.63
2018-08-07T15:52:54.684Z,98260.89
2018-08-07T15:55:25.378Z,98263.27
2018-08-07T15:57:54.613Z,98261.10
2018-08-07T16:00:28.217Z,98258.74
2018-08-07T16:03:00.879Z,98259.50
2018-08-07T16:05:30.327Z,98264.99
2018-08-07T16:07:59.654Z,98270.11
2018-08-07T16:10:28.900Z,98279.38
2018-08-07T16:12:58.113Z,98277.21
2018-08-07T16:15:27.365Z,98287.44
2018-08-07T16:17:56.576Z,98282.84
2018-08-07T16:20:25.818Z,98286.15
2018-08-07T16:22:55.025Z,98288.50
2018-08-07T16:25:24.216Z,98289.69
2018-08-07T16:27:53.520Z,98294.97
2018-08-07T16:30:25.243Z,98296.47
2018-08-07T16:32:54.462Z,98305.80
2018-08-07T16:35:23.682Z,98314.49
2018-08-07T16:37:52.979Z,98309.11
2018-08-07T16:40:23.550Z,98311.17
2018-08-07T16:42:53.898Z,98304.59
2018-08-07T16:45:23.865Z,98306.47
2018-08-07T16:47:53.080Z,98303.81
2018-08-07T16:50:24.591Z,98315.07
2018-08-07T16:52:54.775Z,98322.73
2018-08-07T16:55:25.497Z,98333.80
2018-08-07T16:57:54.836Z,98331.06
2018-08-07T17:00:24.078Z,98329.53
2018-08-07T17:02:53.355Z,98324.88
2018-08-07T17:05:22.623Z,98323.94
2018-08-07T17:07:51.890Z,98319.23
2018-08-07T17:10:26.327Z,98312.81
2018-08-07T17:12:55.665Z,98310.95
2018-08-07T17:15:24.898Z,98315.39
2018-08-07T17:17:54.333Z,98316.97
2018-08-07T17:20:24.080Z,98322.27
2018-08-07T17:22:53.850Z,98330.22
2018-08-07T17:25:23.882Z,98328.97
2018-08-07T17:27:53.212Z,98332.95
2018-08-07T17:30:24.509Z,98338.17
2018-08-07T17:32:53.765Z,98340.14
2018-08-07T17:35:24.282Z,98347.69
2018-08-07T17:37:55.773Z,98347.13
2018-08-07T17:40:26.595Z,98350.82
2018-08-07T17:42:55.834Z,98339.86
2018-08-07T17:45:25.053Z,98351.81
2018-08-07T17:47:54.352Z,98346.19
2018-08-07T17:50:25.630Z,98350.73
2018-08-07T17:52:57.702Z,98344.19
2018-08-07T17:55:26.981Z,98341.67
2018-08-07T17:57:57.708Z,98341.67
2018-08-07T18:00:27.453Z,98341.75
2018-08-07T18:02:56.744Z,98347.30
2018-08-07T18:05:26.031Z,98338.55
2018-08-07T18:07:56.409Z,98342.92
2018-08-07T18:10:25.910Z,98346.91
2018-08-07T18:12:55.222Z,98354.24
2018-08-07T18:15:24.578Z,98356.28
2018-08-07T18:17:53.849Z,98358.03
2018-08-07T18:20:24.448Z,98350.52
2018-08-07T18:22:53.713Z,98354.91
2018-08-07T18:25:22.924Z,98364.35
2018-08-07T18:27:52.143Z,98361.72
2018-08-07T18:30:22.913Z,98360.83
2018-08-07T18:32:52.222Z,98368.23
2018-08-07T18:35:23.943Z,98362.86
2018-08-07T18:37:53.272Z,98361.34
2018-08-07T18:40:22.525Z,98369.70
2018-08-07T18:42:51.762Z,98368.03
2018-08-07T18:45:20.995Z,98367.23
2018-08-07T18:47:50.160Z,98369.31
2018-08-07T18:50:21.434Z,98357.31
2018-08-07T18:52:50.768Z,98355.95
2018-08-07T18:55:20.004Z,98357.58
2018-08-07T18:57:50.226Z,98355.09
2018-08-07T19:00:21.160Z,98353.06
2018-08-07T19:02:50.448Z,98351.88
2018-08-07T19:05:21.000Z,98344.95
2018-08-07T19:07:50.207Z,98334.06
2018-08-07T19:10:19.417Z,98329.44
2018-08-07T19:12:49.214Z,98325.34
2018-08-07T19:15:19.405Z,98316.52
2018-08-07T19:17:49.236Z,98315.48
2018-08-07T19:20:21.108Z,98310.20
2018-08-07T19:22:50.372Z,98301.27
2018-08-07T19:25:20.178Z,98295.85
2018-08-07T19:27:49.744Z,98291.39
2018-08-07T19:30:20.958Z,98291.37
2018-08-07T19:32:50.188Z,98296.59
2018-08-07T19:35:19.325Z,98297.36
2018-08-07T19:37:48.518Z,98298.26
2018-08-07T19:40:18.762Z,98303.42
2018-08-07T19:42:48.862Z,98297.92
2018-08-07T19:45:18.585Z,98311.35
2018-08-07T19:47:47.965Z,98312.86
2018-08-07T19:50:18.845Z,98312.98
2018-08-07T19:52:48.088Z,98320.92
2018-08-07T19:55:19.099Z,98323.84
2018-08-07T19:57:48.356Z,98321.94
2018-08-07T20:00:21.257Z,98327.55
2018-08-07T20:02:51.009Z,98329.84
2018-08-07T20:05:20.506Z,98333.88
2018-08-07T20:07:51.565Z,98345.84
2018-08-07T20:10:21.343Z,98350.16
2018-08-07T20:12:50.668Z,98346.77
2018-08-07T20:15:21.992Z,98347.11
2018-08-07T20:17:51.781Z,98354.72
2018-08-07T20:20:21.504Z,98352.77
2018-08-07T20:22:50.814Z,98360.66
2018-08-07T20:25:20.105Z,98361.26
2018-08-07T20:27:49.334Z,98366.36
2018-08-07T20:30:20.154Z,98361.83
2018-08-07T20:32:50.673Z,98366.84
2018-08-07T20:35:19.907Z,98365.92
2018-08-07T20:37:49.144Z,98371.17
2018-08-07T20:40:20.217Z,98373.34
2018-08-07T20:42:49.632Z,98374.70
2018-08-07T20:45:19.551Z,98372.78
2018-08-07T20:47:48.793Z,98367.89
2018-08-07T20:50:19.649Z,98362.52
2018-08-07T20:52:48.998Z,98363.44
2018-08-07T20:55:18.312Z,98354.58
2018-08-07T20:57:47.600Z,98352.09
2018-08-07T21:00:19.553Z,98350.96
2018-08-07T21:02:49.052Z,98347.31
2018-08-07T21:05:18.338Z,98349.35
2018-08-07T21:07:47.662Z,98350.05
2018-08-07T21:10:18.477Z,98361.14
2018-08-07T21:12:47.787Z,98359.11
2018-08-07T21:15:16.984Z,98358.86
2018-08-07T21:17:46.244Z,98360.67
2018-08-07T21:20:17.548Z,98369.53
2018-08-07T21:22:47.016Z,98368.18
2018-08-07T21:25:19.768Z,98366.12
2018-08-07T21:27:51.884Z,98359.98
2018-08-07T21:30:22.698Z,98368.38
2018-08-07T21:32:51.966Z,98365.84
2018-08-07T21:35:21.216Z,98369.19
2018-08-07T21:37:50.442Z,98372.42
2018-08-07T21:40:20.987Z,98372.50
2018-08-07T21:42:51.237Z,98369.08
2018-08-07T21:45:20.551Z,98356.77
2018-08-07T21:47:49.913Z,98357.98
2018-08-07T21:50:21.631Z,98351.05
2018-08-07T21:52:50.844Z,98351.05
2018-08-07T21:55:20.766Z,98354.89
2018-08-07T21:57:50.101Z,98343.80
2018-08-07T22:00:22.604Z,98349.80
2018-08-07T22:02:51.978Z,98341.16
2018-08-07T22:05:21.311Z,98337.66
2018-08-07T22:07:50.529Z,98342.75
2018-08-07T22:10:21.169Z,98336.20
2018-08-07T22:12:50.410Z,98337.00
2018-08-07T22:15:20.376Z,98338.53
2018-08-07T22:17:49.600Z,98331.22
2018-08-07T22:20:18.945Z,98330.16
2018-08-07T22:22:48.126Z,98326.98
2018-08-07T22:25:17.312Z,98323.67
2018-08-07T22:27:46.514Z,98337.81
2018-08-07T22:30:19.745Z,98334.25
2018-08-07T22:32:49.470Z,98339.23
2018-08-07T22:35:18.719Z,98331.78
2018-08-07T22:37:48.000Z,98329.30
2018-08-07T22:40:17.437Z,98332.89
2018-08-07T22:42:50.634Z,98339.23
2018-08-07T22:45:19.904Z,98346.02
2018-08-07T22:47:49.101Z,98344.20
2018-08-07T22:50:19.185Z,98337.83
2018-08-07T22:52:48.397Z,98335.95
2018-08-07T22:55:19.131Z,98333.84
2018-08-07T22:57:48.330Z,98337.20
2018-08-07T23:00:19.436Z,98332.82
2018-08-07T23:02:48.601Z,98328.70
2018-08-07T23:05:18.680Z,98326.98
2018-08-07T23:07:47.998Z,98328.27
2018-08-07T23:10:19.717Z,98327.56
2018-08-07T23:12:48.940Z,98328.83
2018-08-07T23:15:19.821Z,98330.38
2018-08-07T23:17:49.104Z,98324.45
2018-08-07T23:20:19.891Z,98329.08
2018-08-07T23:22:49.109Z,98333.48
2018-08-07T23:25:18.317Z,98338.28
2018-08-07T23:27:47.562Z,98338.22
2018-08-07T23:30:18.315Z,98342.77
2018-08-07T23:32:47.644Z,98340.02
2018-08-07T23:35:17.454Z,98341.30
2018-08-07T23:37:46.678Z,98338.69
2018-08-07T23:40:16.341Z,98344.72
2018-08-07T23:42:45.997Z,98333.41
2018-08-07T23:45:15.859Z,98324.95
2018-08-07T23:47:45.200Z,98331.25
2018-08-07T23:50:15.017Z,98329.65
2018-08-07T23:52:44.231Z,98316.98
2018-08-07T23:55:13.435Z,98322.66
2018-08-07T23:57:42.658Z,98322.41
